Time;durP1;ratioP1;P1;durP2;ratioP2;P2;SDS_P1;SDS_P2;PMS_P1;PMS_P2;Temp;Humidity;BMP_temperature;BMP_pressure;BME280_temperature;BME280_humidity;BME280_pressure;Samples;Min_cycle;Max_cycle;Signal;HPM_P1;HPM_P2
2021/07/31 00:00:21;;;;;;;;;1.75;1.75;;;;;18.55;56.79;100869.03;5004544;28;45621;-80
2021/07/31 00:02:47;;;;;;;;;3.75;2.50;;;;;18.52;56.55;100869.41;5010361;28;45506;-80
2021/07/31 00:05:13;;;;;;;;;3.75;3.00;;;;;18.48;56.49;100877.00;5023484;28;45564;-80
2021/07/31 00:07:41;;;;;;;;;2.75;2.00;;;;;18.45;57.03;100877.41;5004100;28;45501;-81
2021/07/31 00:10:07;;;;;;;;;2.00;2.00;;;;;18.40;56.84;100880.69;5024162;28;45553;-80
2021/07/31 00:12:32;;;;;;;;;3.75;2.75;;;;;18.35;57.16;100880.44;5022391;28;46419;-79
2021/07/31 00:14:57;;;;;;;;;2.50;1.50;;;;;18.33;56.78;100884.34;5019150;28;45548;-80
2021/07/31 00:17:22;;;;;;;;;3.75;1.50;;;;;18.30;56.90;100882.03;5023452;28;45530;-81
2021/07/31 00:19:48;;;;;;;;;0.75;0.75;;;;;18.26;57.11;100885.13;5007853;28;45676;-80
2021/07/31 00:22:13;;;;;;;;;4.00;3.00;;;;;18.21;57.22;100882.19;5021982;28;50372;-81
2021/07/31 00:24:38;;;;;;;;;2.75;2.25;;;;;18.18;57.23;100871.91;4989060;28;46042;-80
2021/07/31 00:27:04;;;;;;;;;1.50;1.50;;;;;18.14;57.36;100897.38;5025160;28;45545;-80
2021/07/31 00:29:29;;;;;;;;;2.50;0.75;;;;;18.12;57.68;100886.03;5006298;28;45617;-80
2021/07/31 00:31:54;;;;;;;;;5.25;2.50;;;;;18.09;57.59;100886.44;5021223;28;62308;-79
2021/07/31 00:34:20;;;;;;;;;2.25;2.25;;;;;18.05;57.16;100878.00;5020106;28;45487;-80
2021/07/31 00:36:45;;;;;;;;;4.00;1.75;;;;;18.03;57.44;100890.72;5025562;28;45458;-80
2021/07/31 00:39:10;;;;;;;;;0.50;0.50;;;;;18.02;57.19;100882.88;5025064;28;45661;-80
2021/07/31 00:41:36;;;;;;;;;1.00;1.00;;;;;17.99;57.53;100883.28;5026574;28;54648;-80
2021/07/31 00:44:01;;;;;;;;;1.00;1.00;;;;;17.98;57.35;100887.00;5020429;28;50857;-80
2021/07/31 00:46:26;;;;;;;;;1.50;1.50;;;;;17.95;56.86;100887.34;5020776;28;45543;-81
2021/07/31 00:48:53;;;;;;;;;2.25;1.25;;;;;17.94;57.30;100886.53;5021802;28;45549;-79
2021/07/31 00:51:18;;;;;;;;;1.00;1.00;;;;;17.92;57.81;100887.75;5007848;28;47303;-81
2021/07/31 00:53:44;;;;;;;;;1.25;0.50;;;;;17.88;57.40;100890.00;5010369;28;45582;-80
2021/07/31 00:56:11;;;;;;;;;1.25;1.25;;;;;17.84;57.69;100886.88;5024086;28;45828;-80
2021/07/31 00:58:36;;;;;;;;;3.00;1.00;;;;;17.85;57.77;100893.03;5007513;28;46021;-79
2021/07/31 01:01:02;;;;;;;;;2.00;2.00;;;;;17.82;58.00;100885.41;5019117;28;46964;-78
2021/07/31 01:03:28;;;;;;;;;3.75;2.00;;;;;17.81;58.24;100889.13;5023431;28;45549;-79
2021/07/31 01:05:53;;;;;;;;;1.00;1.00;;;;;17.80;58.34;100890.97;5010624;28;45609;-79
2021/07/31 01:08:19;;;;;;;;;2.00;2.00;;;;;17.79;58.85;100891.94;5022320;28;45631;-78
2021/07/31 01:10:44;;;;;;;;;1.50;1.50;;;;;17.76;58.55;100892.31;5020264;28;46701;-79
2021/07/31 01:13:11;;;;;;;;;0.75;0.75;;;;;17.75;58.54;100884.50;5021576;28;46001;-79
2021/07/31 01:15:54;;;;;;;;;2.50;1.50;;;;;17.73;58.45;100883.84;5019533;28;45611;-79
2021/07/31 01:18:20;;;;;;;;;1.50;1.00;;;;;17.70;58.65;100885.06;5021844;28;45656;-78
2021/07/31 01:20:45;;;;;;;;;2.00;2.00;;;;;17.69;58.95;100887.94;5009281;28;51184;-79
2021/07/31 01:23:10;;;;;;;;;2.00;1.25;;;;;17.66;59.46;100883.81;5022148;28;53093;-79
2021/07/31 01:25:35;;;;;;;;;2.25;1.00;;;;;17.66;59.30;100878.47;5022700;28;45561;-79
2021/07/31 01:28:01;;;;;;;;;2.00;2.00;;;;;17.63;59.19;100884.19;5002691;28;45474;-78
2021/07/31 01:30:26;;;;;;;;;2.25;1.00;;;;;17.62;58.89;100887.88;5000361;28;47211;-78
2021/07/31 01:32:52;;;;;;;;;2.00;2.00;;;;;17.62;59.41;100882.53;5010569;28;56185;-79
2021/07/31 01:35:18;;;;;;;;;3.00;1.75;;;;;17.60;59.58;100879.22;5021097;28;45907;-79
2021/07/31 01:37:43;;;;;;;;;3.00;2.00;;;;;17.58;59.30;100881.25;5021945;28;45522;-79
2021/07/31 01:40:09;;;;;;;;;2.50;1.25;;;;;17.58;59.44;100878.59;5020222;28;57286;-78
2021/07/31 01:42:35;;;;;;;;;3.50;2.00;;;;;17.55;59.40;100887.00;5006642;28;45608;-79
2021/07/31 01:45:00;;;;;;;;;2.75;1.50;;;;;17.54;59.66;100880.81;5005003;28;45457;-79
2021/07/31 01:47:25;;;;;;;;;2.00;2.00;;;;;17.52;60.01;100882.03;5024858;28;45789;-79
2021/07/31 01:49:51;;;;;;;;;2.00;2.00;;;;;17.52;59.80;100882.03;5024185;28;45574;-79
2021/07/31 01:52:16;;;;;;;;;2.00;2.00;;;;;17.50;59.57;100884.88;5024907;28;45492;-79
2021/07/31 01:54:41;;;;;;;;;3.00;1.50;;;;;17.49;60.09;100888.59;5025944;28;45489;-79
2021/07/31 01:57:07;;;;;;;;;2.00;2.00;;;;;17.47;60.02;100884.44;5009732;28;52735;-78
2021/07/31 01:59:32;;;;;;;;;3.25;1.25;;;;;17.44;60.33;100884.84;5029036;28;45489;-79
2021/07/31 02:01:57;;;;;;;;;2.00;2.00;;;;;17.44;60.29;100882.16;5024338;28;45581;-79
2021/07/31 02:04:23;;;;;;;;;3.25;1.00;;;;;17.42;60.73;100885.84;5024492;28;45762;-79
2021/07/31 02:06:48;;;;;;;;;3.00;1.25;;;;;17.42;61.10;100885.84;5009689;28;50992;-80
2021/07/31 02:09:14;;;;;;;;;3.75;2.25;;;;;17.40;60.54;100887.88;5026900;28;62795;-79
2021/07/31 02:11:39;;;;;;;;;4.00;2.50;;;;;17.38;60.74;100881.06;5029843;28;45547;-80
2021/07/31 02:14:04;;;;;;;;;3.75;1.50;;;;;17.36;60.96;100877.78;5026099;28;45485;-80
2021/07/31 02:16:30;;;;;;;;;3.00;3.00;;;;;17.34;60.64;100882.47;5025137;28;45574;-79
2021/07/31 02:18:55;;;;;;;;;2.00;2.00;;;;;17.32;60.88;100882.66;5024774;28;55194;-79
2021/07/31 02:21:21;;;;;;;;;3.50;1.75;;;;;17.31;60.82;100877.50;5027029;28;45643;-79
2021/07/31 02:23:46;;;;;;;;;1.00;1.00;;;;;17.29;60.95;100882.22;5028856;28;45907;-79
2021/07/31 02:26:11;;;;;;;;;4.00;3.00;;;;;17.26;61.10;100871.91;5024793;28;45560;-79
2021/07/31 02:28:37;;;;;;;;;3.50;1.75;;;;;17.23;61.01;100867.75;5023575;28;45474;-78
2021/07/31 02:31:03;;;;;;;;;4.50;2.00;;;;;17.20;61.42;100863.63;5024735;28;47256;-79
2021/07/31 02:33:28;;;;;;;;;3.25;2.00;;;;;17.18;61.92;100867.50;5024540;28;45677;-79
2021/07/31 02:35:53;;;;;;;;;2.00;2.00;;;;;17.14;62.10;100864.41;5012589;28;45522;-79
2021/07/31 02:38:19;;;;;;;;;3.00;2.00;;;;;17.12;61.61;100866.44;5026950;28;46465;-79
2021/07/31 02:40:44;;;;;;;;;2.50;2.50;;;;;17.09;61.65;100874.81;5020437;28;45548;-80
2021/07/31 02:43:09;;;;;;;;;2.25;2.25;;;;;17.06;61.84;100872.53;5022156;28;48921;-79
2021/07/31 02:45:36;;;;;;;;;5.00;2.00;;;;;17.06;62.30;100867.19;5026052;28;45689;-79
2021/07/31 02:48:02;;;;;;;;;2.75;1.00;;;;;17.04;62.34;100863.06;5013546;28;46847;-78
2021/07/31 02:50:28;;;;;;;;;2.00;2.00;;;;;17.02;61.75;100859.75;5028363;28;45501;-78
2021/07/31 02:52:53;;;;;;;;;2.25;2.25;;;;;16.97;62.30;100862.97;5009528;28;45464;-79
2021/07/31 02:55:19;;;;;;;;;2.50;2.00;;;;;16.95;62.40;100865.81;5024305;28;45580;-78
2021/07/31 02:57:44;;;;;;;;;4.25;3.00;;;;;16.93;62.77;100865.19;5003983;28;46883;-78
2021/07/31 03:00:10;;;;;;;;;2.00;2.00;;;;;16.92;62.54;100868.88;5009094;28;54646;-79
2021/07/31 03:02:35;;;;;;;;;1.00;1.00;;;;;16.91;62.29;100864.56;5012103;28;45614;-79
2021/07/31 03:05:01;;;;;;;;;2.00;2.00;;;;;16.89;62.57;100863.91;5024342;28;45978;-79
2021/07/31 03:07:26;;;;;;;;;5.00;3.25;;;;;16.87;62.78;100862.47;5025190;28;45498;-79
2021/07/31 03:09:52;;;;;;;;;3.25;1.00;;;;;16.85;62.53;100870.63;5024046;28;45654;-79
2021/07/31 03:12:18;;;;;;;;;2.75;1.75;;;;;16.84;63.11;100863.66;5024241;28;45453;-79
2021/07/31 03:14:43;;;;;;;;;2.00;0.25;;;;;16.82;63.05;100865.69;5028489;28;45561;-79
2021/07/31 03:17:09;;;;;;;;;2.00;2.00;;;;;16.81;62.89;100861.34;5025942;28;45683;-79
2021/07/31 03:19:34;;;;;;;;;2.75;2.25;;;;;16.78;62.95;100856.38;5008548;28;45686;-79
2021/07/31 03:22:02;;;;;;;;;3.50;3.00;;;;;16.76;63.28;100861.03;5026367;28;45596;-80
2021/07/31 03:24:29;;;;;;;;;3.00;2.00;;;;;16.74;63.53;100860.41;5023039;28;45553;-80
2021/07/31 03:26:54;;;;;;;;;1.00;1.00;;;;;16.72;63.51;100865.13;5011057;28;47518;-79
2021/07/31 03:29:19;;;;;;;;;3.00;1.50;;;;;16.68;63.53;100866.50;5016250;28;45826;-79
2021/07/31 03:31:45;;;;;;;;;1.75;1.75;;;;;16.65;63.73;100864.22;5028063;28;45454;-80
2021/07/31 03:34:10;;;;;;;;;3.75;2.00;;;;;16.63;63.81;100867.06;5007573;28;45467;-79
2021/07/31 03:36:35;;;;;;;;;2.00;2.00;;;;;16.63;63.98;100863.56;5023353;28;46201;-79
2021/07/31 03:39:01;;;;;;;;;7.00;2.25;;;;;16.61;64.47;100866.41;5009712;28;45518;-79
2021/07/31 03:41:27;;;;;;;;;3.75;2.75;;;;;16.59;64.24;100860.41;5027179;28;45662;-79
2021/07/31 03:43:52;;;;;;;;;2.00;2.00;;;;;16.61;64.02;100873.59;5023636;28;45910;-80
2021/07/31 03:46:17;;;;;;;;;3.00;3.00;;;;;16.59;64.45;100865.75;5025609;28;50234;-80
2021/07/31 03:48:43;;;;;;;;;3.00;3.00;;;;;16.60;64.23;100871.94;5023939;28;47102;-79
2021/07/31 03:51:08;;;;;;;;;1.25;1.00;;;;;16.59;63.96;100864.94;5026987;28;45502;-79
2021/07/31 03:53:33;;;;;;;;;4.00;3.00;;;;;16.59;64.95;100875.59;5028322;28;45545;-79
2021/07/31 03:55:58;;;;;;;;;4.25;2.25;;;;;16.56;64.43;100880.28;5025367;28;50089;-80
2021/07/31 03:58:24;;;;;;;;;3.00;2.75;;;;;16.55;64.53;100884.00;5024983;28;45770;-79
2021/07/31 04:00:49;;;;;;;;;3.00;3.00;;;;;16.53;64.32;100875.34;5022739;28;45803;-79
2021/07/31 04:03:14;;;;;;;;;3.00;1.75;;;;;16.52;64.64;100894.22;5026530;28;45454;-80
2021/07/31 04:05:40;;;;;;;;;4.50;2.75;;;;;16.49;64.85;100887.41;5026765;28;48402;-79
2021/07/31 04:08:06;;;;;;;;;4.75;2.75;;;;;16.49;64.51;100890.06;5025980;28;45510;-79
2021/07/31 04:10:32;;;;;;;;;1.75;1.75;;;;;16.45;64.79;100883.44;5023455;28;45900;-80
2021/07/31 04:12:57;;;;;;;;;3.75;3.00;;;;;16.44;64.99;100884.44;5007849;28;45524;-79
2021/07/31 04:15:23;;;;;;;;;2.00;2.00;;;;;16.42;64.95;100878.47;5025581;28;49550;-79
2021/07/31 04:17:48;;;;;;;;;2.00;2.00;;;;;16.40;65.24;100883.16;5028324;28;45526;-80
2021/07/31 04:20:14;;;;;;;;;3.75;2.00;;;;;16.40;65.31;100883.16;5021672;28;45584;-78
2021/07/31 04:22:39;;;;;;;;;2.25;2.25;;;;;16.40;65.64;100875.16;5020802;28;45532;-80
2021/07/31 04:25:06;;;;;;;;;3.00;1.75;;;;;16.38;65.53;100879.84;5024069;28;46406;-80
2021/07/31 04:27:32;;;;;;;;;5.50;3.00;;;;;16.38;65.72;100885.19;5021538;28;45522;-79
2021/07/31 04:29:58;;;;;;;;;2.00;2.00;;;;;16.37;65.55;100883.53;5027855;28;45915;-78
2021/07/31 04:32:23;;;;;;;;;5.50;4.00;;;;;16.37;65.37;100886.22;5024005;28;46059;-79
2021/07/31 04:34:49;;;;;;;;;3.25;2.00;;;;;16.38;65.72;100895.03;5009847;28;48394;-79
2021/07/31 04:37:14;;;;;;;;;5.00;2.50;;;;;16.37;65.94;100891.53;5005007;28;50650;-79
2021/07/31 04:39:40;;;;;;;;;3.50;2.00;;;;;16.39;65.74;100891.34;5023686;28;45544;-79
2021/07/31 04:42:05;;;;;;;;;4.00;3.00;;;;;16.41;65.72;100889.31;5006883;28;45566;-79
2021/07/31 04:44:31;;;;;;;;;2.00;2.00;;;;;16.43;65.62;100888.13;5007661;28;48120;-79
2021/07/31 04:46:56;;;;;;;;;2.75;2.75;;;;;16.46;65.80;100890.41;5023607;28;45657;-79
2021/07/31 04:49:22;;;;;;;;;2.00;2.00;;;;;16.50;65.89;100899.72;5024493;28;45563;-80
2021/07/31 04:51:47;;;;;;;;;2.00;2.00;;;;;16.53;65.64;100891.34;5022712;28;45685;-80
2021/07/31 04:54:12;;;;;;;;;3.50;2.00;;;;;16.58;65.54;100879.31;5023735;28;46311;-79
2021/07/31 04:56:38;;;;;;;;;3.00;3.00;;;;;16.62;65.60;100891.28;5025615;28;47401;-81
2021/07/31 04:59:04;;;;;;;;;4.00;4.00;;;;;16.66;65.21;100884.53;5000346;28;45649;-81
2021/07/31 05:01:29;;;;;;;;;2.50;2.00;;;;;16.70;65.70;100888.50;5019361;28;45510;-80
2021/07/31 05:03:55;;;;;;;;;3.00;2.50;;;;;16.75;65.77;100880.75;5019878;28;45709;-81
2021/07/31 05:06:23;;;;;;;;;4.25;2.00;;;;;16.80;65.20;100881.06;5001665;28;45510;-80
2021/07/31 05:08:49;;;;;;;;;2.50;2.50;;;;;16.87;65.13;100887.31;5026150;28;45923;-80
2021/07/31 05:11:15;;;;;;;;;4.50;2.25;;;;;16.93;65.30;100888.38;5020893;28;45612;-80
2021/07/31 05:13:40;;;;;;;;;2.50;2.25;;;;;17.01;64.89;100890.13;5018458;28;45988;-80
2021/07/31 05:16:05;;;;;;;;;2.00;2.00;;;;;17.05;64.79;100889.56;5023186;28;45581;-80
2021/07/31 05:18:31;;;;;;;;;3.75;2.75;;;;;17.12;64.88;100893.13;5022157;28;45584;-80
2021/07/31 05:20:58;;;;;;;;;4.25;2.00;;;;;17.20;64.73;100892.19;5008450;28;45653;-78
2021/07/31 05:23:23;;;;;;;;;3.75;2.25;;;;;17.25;64.77;100887.09;5007904;28;48823;-79
2021/07/31 05:25:49;;;;;;;;;3.00;2.25;;;;;17.34;64.68;100885.16;5022000;28;45522;-78
2021/07/31 05:28:14;;;;;;;;;3.00;3.00;;;;;17.40;64.45;100892.41;5022980;28;45658;-80
2021/07/31 05:30:40;;;;;;;;;4.00;2.00;;;;;17.45;64.21;100892.66;5018214;28;45449;-80
2021/07/31 05:33:06;;;;;;;;;2.00;2.00;;;;;17.51;64.00;100896.44;5024709;28;45726;-78
2021/07/31 05:35:32;;;;;;;;;5.00;4.00;;;;;17.54;64.54;100896.03;5006696;28;45534;-79
2021/07/31 05:37:58;;;;;;;;;4.00;2.75;;;;;17.56;64.29;100897.50;5021754;28;45629;-78
2021/07/31 05:40:23;;;;;;;;;6.25;3.50;;;;;17.55;63.91;100898.50;5023694;28;45542;-78
2021/07/31 05:42:49;;;;;;;;;5.50;4.00;;;;;17.57;64.17;100901.00;5004891;28;47245;-79
2021/07/31 05:45:14;;;;;;;;;3.75;2.50;;;;;17.55;64.11;100893.16;5023885;28;45619;-79
2021/07/31 05:47:39;;;;;;;;;4.00;3.00;;;;;17.58;64.43;100908.81;5026365;28;45822;-80
2021/07/31 05:50:07;;;;;;;;;3.00;3.00;;;;;17.65;64.83;100900.03;5020692;28;45653;-79
2021/07/31 05:52:37;;;;;;;;;4.00;2.50;;;;;17.72;64.02;100906.25;5018853;28;46409;-78
2021/07/31 05:55:04;;;;;;;;;2.75;2.75;;;;;17.79;63.89;100909.81;5017437;28;45553;-80
2021/07/31 05:57:29;;;;;;;;;5.00;3.00;;;;;17.84;63.80;100912.78;5018317;28;45513;-79
2021/07/31 05:59:55;;;;;;;;;2.50;2.50;;;;;17.91;63.53;100910.16;5018785;28;45812;-79
2021/07/31 06:02:20;;;;;;;;;4.75;3.75;;;;;17.98;63.28;100911.88;5021902;28;51280;-79
2021/07/31 06:04:46;;;;;;;;;4.00;3.25;;;;;18.04;63.61;100908.41;5014954;28;45569;-82
2021/07/31 06:07:11;;;;;;;;;3.25;3.00;;;;;18.09;63.30;100909.69;5019645;28;45692;-79
2021/07/31 06:09:38;;;;;;;;;3.00;3.00;;;;;18.12;63.25;100904.75;5019248;28;45597;-78
2021/07/31 06:12:05;;;;;;;;;5.00;2.50;;;;;18.14;63.38;100910.75;5022759;28;45730;-78
2021/07/31 06:14:33;;;;;;;;;4.00;0.75;;;;;18.14;63.08;100913.41;5020903;28;45546;-80
2021/07/31 06:16:58;;;;;;;;;3.50;3.25;;;;;18.17;63.20;100917.56;5017502;28;45510;-79
2021/07/31 06:19:23;;;;;;;;;3.00;3.00;;;;;18.27;62.88;100915.34;5001939;28;45634;-79
2021/07/31 06:21:49;;;;;;;;;4.00;3.25;;;;;18.35;63.07;100917.09;5021812;28;45604;-79
2021/07/31 06:24:14;;;;;;;;;4.50;2.75;;;;;18.35;62.97;100917.09;5017897;28;45984;-80
2021/07/31 06:26:40;;;;;;;;;6.00;3.50;;;;;18.37;62.60;100920.38;5022323;28;45741;-79
2021/07/31 06:29:07;;;;;;;;;3.00;3.00;;;;;18.42;62.78;100921.44;5015709;28;45574;-79
2021/07/31 06:31:33;;;;;;;;;6.75;3.50;;;;;18.56;62.55;100933.03;5019359;28;46210;-79
2021/07/31 06:34:01;;;;;;;;;3.75;3.50;;;;;18.69;62.04;100938.50;5007862;28;45700;-80
2021/07/31 06:36:27;;;;;;;;;3.25;3.00;;;;;18.81;62.58;100938.75;5022654;28;45537;-81
2021/07/31 06:38:53;;;;;;;;;5.00;4.00;;;;;19.04;62.13;100940.31;5029889;28;45552;-82
2021/07/31 06:41:18;;;;;;;;;4.50;2.75;;;;;19.27;61.55;100929.28;5012580;28;46589;-80
2021/07/31 06:43:43;;;;;;;;;4.75;4.25;;;;;19.45;60.96;100921.47;5027032;28;47129;-81
2021/07/31 06:46:14;;;;;;;;;5.00;3.50;;;;;19.59;60.56;100926.88;5025510;28;45965;-79
2021/07/31 06:48:40;;;;;;;;;3.50;3.50;;;;;19.68;60.12;100918.47;5007137;28;45645;-79
2021/07/31 06:51:06;;;;;;;;;5.00;3.00;;;;;19.79;60.23;100922.38;5027352;28;46498;-80
2021/07/31 06:53:32;;;;;;;;;5.00;4.00;;;;;19.89;60.20;100920.13;5026582;28;45649;-79
2021/07/31 06:56:01;;;;;;;;;3.75;3.75;;;;;20.03;60.25;100929.00;5022554;28;45528;-81
2021/07/31 06:58:27;;;;;;;;;2.75;2.75;;;;;20.15;59.32;100926.50;5025036;28;45583;-79
2021/07/31 07:00:52;;;;;;;;;3.00;2.75;;;;;20.15;59.10;100927.34;5021093;28;45617;-80
2021/07/31 07:03:18;;;;;;;;;4.50;3.75;;;;;20.21;59.47;100922.19;4998156;28;45476;-81
2021/07/31 07:05:44;;;;;;;;;4.00;3.00;;;;;20.23;58.66;100934.34;5007898;28;45553;-81
2021/07/31 07:08:09;;;;;;;;;3.00;2.75;;;;;20.21;59.02;100924.84;5024099;28;45520;-83
2021/07/31 07:10:34;;;;;;;;;6.75;4.00;;;;;20.24;58.94;100933.31;5000357;28;47416;-82
2021/07/31 07:13:00;;;;;;;;;3.75;3.75;;;;;20.33;58.69;100931.25;5019185;28;45631;-82
2021/07/31 07:15:28;;;;;;;;;4.50;3.75;;;;;20.43;58.72;100937.00;5012247;28;51927;-83
2021/07/31 07:17:58;;;;;;;;;3.75;3.75;;;;;20.53;58.59;100933.88;5028199;28;45864;-82
2021/07/31 07:20:26;;;;;;;;;4.00;4.00;;;;;20.64;58.12;100937.81;5022375;28;45560;-82
2021/07/31 07:22:52;;;;;;;;;4.00;4.00;;;;;20.70;57.96;100934.28;5024104;28;45542;-83
2021/07/31 07:25:19;;;;;;;;;3.00;3.00;;;;;20.72;58.21;100940.25;5020913;28;45371;-82
2021/07/31 07:27:44;;;;;;;;;3.00;3.00;;;;;20.83;57.35;100937.75;5023206;28;45635;-82
2021/07/31 07:30:10;;;;;;;;;6.75;4.00;;;;;21.04;56.86;100936.66;5005981;28;47254;-80
2021/07/31 07:32:35;;;;;;;;;3.00;2.75;;;;;21.11;57.05;100941.16;5026895;28;45527;-79
2021/07/31 07:35:02;;;;;;;;;5.00;4.00;;;;;21.18;57.74;100941.94;5005656;28;45776;-80
2021/07/31 07:37:27;;;;;;;;;3.75;3.75;;;;;21.18;56.70;100942.75;5003459;28;45569;-83
2021/07/31 07:39:55;;;;;;;;;3.25;3.25;;;;;21.22;56.92;100941.31;5020684;28;47966;-80
2021/07/31 07:42:21;;;;;;;;;4.50;4.00;;;;;21.55;56.31;100944.88;5003463;28;45693;-82
2021/07/31 07:44:46;;;;;;;;;4.00;4.00;;;;;21.83;55.20;100944.47;5025456;28;45616;-81
2021/07/31 07:47:11;;;;;;;;;2.75;2.75;;;;;24.23;54.00;100939.66;5021133;28;45871;-83
2021/07/31 07:49:37;;;;;;;;;4.00;4.00;;;;;27.99;47.96;100941.50;5018428;28;51326;-78
2021/07/31 07:52:03;;;;;;;;;3.75;2.50;;;;;30.62;42.15;100934.44;5000671;28;45710;-80
2021/07/31 07:54:29;;;;;;;;;3.00;3.00;;;;;31.41;39.95;100931.88;5022940;28;45442;-81
2021/07/31 07:56:55;;;;;;;;;3.75;3.50;;;;;30.72;38.42;100935.50;5026273;28;45691;-81
2021/07/31 07:59:21;;;;;;;;;3.00;3.00;;;;;29.56;40.07;100934.28;5004828;28;47120;-79
2021/07/31 08:01:46;;;;;;;;;3.00;3.00;;;;;28.76;40.76;100930.25;5025282;28;46361;-81
2021/07/31 08:04:11;;;;;;;;;4.25;3.75;;;;;28.04;41.00;100937.97;5021181;28;45518;-80
2021/07/31 08:06:37;;;;;;;;;5.50;3.75;;;;;27.72;42.04;100944.25;5023163;28;45660;-80
2021/07/31 08:09:03;;;;;;;;;4.75;3.00;;;;;27.33;42.36;100951.75;5023738;28;46260;-81
2021/07/31 08:11:28;;;;;;;;;4.25;4.00;;;;;26.74;43.67;100950.50;5021023;28;45430;-81
2021/07/31 08:13:53;;;;;;;;;4.75;4.00;;;;;26.37;44.14;100939.38;5018583;28;45517;-81
2021/07/31 08:16:19;;;;;;;;;3.50;3.50;;;;;25.97;44.83;100951.25;5023846;28;45513;-83
2021/07/31 08:18:45;;;;;;;;;4.75;3.50;;;;;25.88;45.08;100942.72;4996118;28;47421;-83
2021/07/31 08:21:10;;;;;;;;;3.50;3.50;;;;;26.04;45.04;100941.09;5025525;28;46828;-83
2021/07/31 08:23:35;;;;;;;;;2.00;2.00;;;;;25.85;45.05;100954.03;5011009;28;46210;-82
2021/07/31 08:26:03;;;;;;;;;5.00;2.75;;;;;25.60;44.91;100945.47;5023464;28;45601;-81
2021/07/31 08:28:29;;;;;;;;;3.00;3.00;;;;;25.33;45.41;100940.66;5025842;28;46589;-81
2021/07/31 08:30:54;;;;;;;;;7.00;4.00;;;;;25.31;46.11;100940.06;5016957;28;45558;-81
2021/07/31 08:33:19;;;;;;;;;4.50;3.75;;;;;25.75;45.34;100945.72;5024856;28;45697;-87
2021/07/31 08:35:45;;;;;;;;;3.75;3.00;;;;;27.79;44.29;100942.09;5009505;28;45570;-82
2021/07/31 08:38:10;;;;;;;;;3.00;3.00;;;;;31.05;40.78;100940.25;5023013;28;46090;-82
2021/07/31 08:40:36;;;;;;;;;4.00;4.00;;;;;32.58;38.23;100942.00;5026677;28;46455;-83
2021/07/31 08:43:02;;;;;;;;;4.00;3.75;;;;;35.35;35.54;100936.06;5020460;28;45670;-81
2021/07/31 08:45:27;;;;;;;;;5.00;3.75;;;;;36.22;32.75;100939.38;5010433;28;45581;-82
2021/07/31 08:47:54;;;;;;;;;3.50;3.50;;;;;38.32;30.91;100943.75;5027104;28;45865;-83
2021/07/31 08:50:24;;;;;;;;;2.00;1.75;;;;;39.85;28.77;100950.75;5021596;28;45825;-82
2021/07/31 08:52:55;;;;;;;;;3.25;3.25;;;;;40.80;27.36;100954.28;5022597;28;45560;-82
2021/07/31 08:55:20;;;;;;;;;3.00;3.00;;;;;39.40;26.50;100947.97;5022193;28;45680;-86
2021/07/31 08:57:46;;;;;;;;;4.00;2.75;;;;;38.32;27.93;100951.25;5023708;28;45597;-88
2021/07/31 09:00:11;;;;;;;;;2.00;2.00;;;;;37.99;27.59;100947.16;5025397;28;46294;-86
2021/07/31 09:02:41;;;;;;;;;2.00;1.25;;;;;36.36;27.89;100948.34;5026997;28;45534;-85
2021/07/31 09:05:08;;;;;;;;;1.75;1.75;;;;;36.13;29.63;100955.03;5022220;28;45505;-85
2021/07/31 09:07:33;;;;;;;;;1.75;1.50;;;;;35.02;29.35;100952.72;5026392;28;45460;-85
2021/07/31 09:10:32;;;;;;;;;2.50;2.50;;;;;33.40;31.91;100955.41;5006946;28;45549;-86
2021/07/31 09:13:00;;;;;;;;;2.00;2.00;;;;;31.93;32.75;100963.13;4920385;28;45674;-87
2021/07/31 09:15:38;;;;;;;;;3.00;3.00;;;;;30.57;34.34;100956.28;4926021;28;45737;-87
2021/07/31 09:18:25;;;;;;;;;1.75;1.50;;;;;29.31;35.53;100959.56;4924155;28;46374;-82
2021/07/31 09:20:55;;;;;;;;;3.00;2.00;;;;;28.48;37.23;100960.28;4926631;28;45430;-82
2021/07/31 09:23:20;;;;;;;;;2.75;2.25;;;;;30.44;36.56;100962.31;4921692;28;45596;-81
2021/07/31 09:26:00;;;;;;;;;3.25;3.00;;;;;30.30;35.29;100951.16;4924549;28;45754;-82
2021/07/31 09:28:25;;;;;;;;;3.75;3.75;;;;;31.31;35.97;100945.56;4924805;28;48877;-81
2021/07/31 09:30:51;;;;;;;;;3.00;2.25;;;;;33.17;33.06;100948.91;4924411;28;45518;-81
2021/07/31 09:33:20;;;;;;;;;3.25;2.75;;;;;32.91;32.14;100937.47;4922759;28;45579;-81
2021/07/31 09:35:47;;;;;;;;;4.75;2.00;;;;;31.58;33.35;100944.28;4926038;28;45559;-80
2021/07/31 09:38:13;;;;;;;;;2.25;2.25;;;;;30.40;34.41;100937.50;4924190;28;52730;-84
2021/07/31 09:40:39;;;;;;;;;3.75;3.75;;;;;29.39;35.36;100938.34;4918445;28;45788;-83
2021/07/31 09:43:14;;;;;;;;;2.00;2.00;;;;;28.51;36.99;100942.63;4923559;28;46138;-81
2021/07/31 09:45:40;;;;;;;;;3.75;2.75;;;;;27.91;38.36;100936.53;4924642;28;45555;-84
2021/07/31 09:48:08;;;;;;;;;3.00;2.00;;;;;27.46;38.36;100932.31;4952129;28;47125;-83
2021/07/31 09:50:37;;;;;;;;;3.00;3.00;;;;;27.16;39.83;100936.34;5025353;28;45693;-80
2021/07/31 09:53:10;;;;;;;;;2.75;2.75;;;;;26.89;39.38;100932.78;5021975;28;50410;-78
2021/07/31 09:55:42;;;;;;;;;3.25;3.25;;;;;26.94;40.33;100930.94;5021697;28;47080;-85
2021/07/31 09:58:09;;;;;;;;;5.25;4.00;;;;;27.10;40.18;100920.25;5020577;28;45594;-83
2021/07/31 10:00:38;;;;;;;;;4.00;3.00;;;;;27.35;39.60;100915.13;5021344;28;45544;-82
2021/07/31 10:03:04;;;;;;;;;2.00;2.00;;;;;27.67;40.08;100920.56;5026121;28;45510;-82
2021/07/31 10:05:30;;;;;;;;;3.25;2.50;;;;;27.72;38.84;100916.25;5025896;28;45693;-83
2021/07/31 10:07:55;;;;;;;;;2.50;2.50;;;;;27.98;39.88;100914.59;5005236;28;46949;-81
2021/07/31 10:10:21;;;;;;;;;3.00;3.00;;;;;28.06;38.90;100914.91;5025972;28;45581;-82
2021/07/31 10:12:47;;;;;;;;;5.75;3.75;;;;;27.86;40.22;100907.44;5028035;28;45415;-83
2021/07/31 10:15:13;;;;;;;;;2.75;2.75;;;;;27.62;38.56;100901.53;5027731;28;45518;-82
2021/07/31 10:17:41;;;;;;;;;1.00;1.00;;;;;27.40;39.89;100900.81;5027248;28;45481;-82
2021/07/31 10:20:07;;;;;;;;;3.00;3.00;;;;;28.07;39.53;100886.69;5011392;28;49063;-82
2021/07/31 10:22:40;;;;;;;;;4.25;3.00;;;;;29.06;38.80;100891.50;5021013;28;45585;-84
2021/07/31 10:25:07;;;;;;;;;4.00;3.00;;;;;29.24;37.53;100893.69;5025627;28;45738;-81
2021/07/31 10:27:33;;;;;;;;;3.00;3.00;;;;;28.87;37.38;100891.94;5024790;28;47682;-83
2021/07/31 10:30:00;;;;;;;;;2.75;2.75;;;;;28.49;38.35;100904.88;5022840;28;45713;-81
2021/07/31 10:32:32;;;;;;;;;4.25;3.75;;;;;28.17;38.55;100896.78;5027835;28;45565;-82
2021/07/31 10:35:01;;;;;;;;;3.25;3.00;;;;;27.86;39.40;100901.19;5024047;28;45443;-83
2021/07/31 10:37:29;;;;;;;;;2.00;2.00;;;;;27.59;39.67;100895.78;5027252;28;46367;-80
2021/07/31 10:39:55;;;;;;;;;3.00;3.00;;;;;27.35;39.97;100896.13;5027292;28;45588;-80
2021/07/31 10:42:21;;;;;;;;;4.50;4.25;;;;;27.12;40.29;100899.13;5024952;28;45653;-80
2021/07/31 10:45:28;;;;;;;;;2.50;2.50;;;;;26.78;40.55;100902.84;5020984;28;45506;-82
2021/07/31 10:48:00;;;;;;;;;5.50;3.00;;;;;26.47;40.90;100898.88;5030070;28;46383;-81
2021/07/31 10:50:26;;;;;;;;;2.50;2.50;;;;;26.59;41.02;100901.50;5023988;28;45521;-82
2021/07/31 10:52:51;;;;;;;;;2.50;2.50;;;;;26.72;42.02;100892.19;5023544;28;45553;-82
2021/07/31 10:55:18;;;;;;;;;3.00;2.50;;;;;26.92;41.10;100888.88;5023470;28;45577;-82
2021/07/31 10:57:52;;;;;;;;;3.00;2.25;;;;;27.14;39.43;100894.25;5025375;28;45783;-83
2021/07/31 11:00:24;;;;;;;;;2.00;2.00;;;;;27.22;38.13;100886.50;5026210;28;46039;-82
2021/07/31 11:02:51;;;;;;;;;2.00;2.00;;;;;27.09;39.26;100889.59;5027641;28;45588;-82
2021/07/31 11:05:16;;;;;;;;;3.00;2.00;;;;;26.87;40.19;100894.25;5025514;28;45676;-81
2021/07/31 11:07:57;;;;;;;;;2.00;2.00;;;;;26.71;41.63;100896.78;5024930;28;45513;-82
2021/07/31 11:10:43;;;;;;;;;2.75;2.75;;;;;26.66;41.21;100901.34;5026347;28;45510;-82
2021/07/31 11:13:11;;;;;;;;;6.50;3.00;;;;;26.55;41.49;100897.66;5025901;28;45451;-82
2021/07/31 11:16:00;;;;;;;;;4.75;4.50;;;;;26.46;41.88;100893.72;5008457;28;45647;-84
2021/07/31 11:18:42;;;;;;;;;3.00;3.00;;;;;26.45;41.95;100889.38;5025644;28;45578;-88
2021/07/31 11:21:31;;;;;;;;;4.25;3.75;;;;;26.72;42.55;100890.28;5014561;28;45558;-89